sensor_id;sensor_type;location;lat;lon;timestamp;P1;durP1;ratioP1;P2;durP2;ratioP2
75112;SDS011;63692;47.338;8.520;2023-11-21T06:29:45;4.28;;;0.88;;
75112;SDS011;63692;47.338;8.520;2023-11-21T06:32:10;5.95;;;0.75;;
75112;SDS011;63692;47.338;8.520;2023-11-21T08:25:19;4.00;;;1.48;;
75112;SDS011;63692;47.338;8.520;2023-11-21T08:27:45;3.60;;;0.80;;
75112;SDS011;63692;47.338;8.520;2023-11-21T08:30:11;2.40;;;0.80;;
75112;SDS011;63692;47.338;8.520;2023-11-21T08:32:41;4.43;;;1.00;;
75112;SDS011;63692;47.338;8.520;2023-11-21T08:35:07;3.53;;;0.80;;
75112;SDS011;63692;47.338;8.520;2023-11-21T08:37:33;4.90;;;0.88;;
75112;SDS011;63692;47.338;8.520;2023-11-21T08:40:02;5.28;;;0.93;;
75112;SDS011;63692;47.338;8.520;2023-11-21T08:42:29;4.13;;;0.90;;
75112;SDS011;63692;47.338;8.520;2023-11-21T08:44:55;3.45;;;0.85;;
75112;SDS011;63692;47.338;8.520;2023-11-21T08:47:22;4.47;;;0.82;;
75112;SDS011;63692;47.338;8.520;2023-11-21T08:49:49;3.53;;;1.23;;
75112;SDS011;63692;47.338;8.520;2023-11-21T08:52:18;3.63;;;0.90;;
75112;SDS011;63692;47.338;8.520;2023-11-21T08:54:43;2.50;;;0.73;;
75112;SDS011;63692;47.338;8.520;2023-11-21T08:57:10;3.88;;;0.80;;
75112;SDS011;63692;47.338;8.520;2023-11-21T08:59:35;5.40;;;0.73;;
75112;SDS011;63692;47.338;8.520;2023-11-21T09:02:01;2.83;;;0.90;;
75112;SDS011;63692;47.338;8.520;2023-11-21T09:04:27;3.47;;;0.95;;
75112;SDS011;63692;47.338;8.520;2023-11-21T09:06:52;2.30;;;0.82;;
75112;SDS011;63692;47.338;8.520;2023-11-21T09:09:18;4.72;;;1.10;;
75112;SDS011;63692;47.338;8.520;2023-11-21T09:11:44;3.45;;;1.00;;
75112;SDS011;63692;47.338;8.520;2023-11-21T09:14:11;3.60;;;0.73;;
75112;SDS011;63692;47.338;8.520;2023-11-21T09:16:38;3.80;;;1.08;;
75112;SDS011;63692;47.338;8.520;2023-11-21T09:19:04;7.32;;;1.42;;
75112;SDS011;63692;47.338;8.520;2023-11-21T09:21:30;2.72;;;0.82;;
75112;SDS011;63692;47.338;8.520;2023-11-21T09:23:56;3.83;;;1.00;;
75112;SDS011;63692;47.338;8.520;2023-11-21T09:26:21;2.50;;;0.70;;
75112;SDS011;63692;47.338;8.520;2023-11-21T09:28:47;4.40;;;0.80;;
75112;SDS011;63692;47.338;8.520;2023-11-21T09:31:13;5.25;;;1.05;;
75112;SDS011;63692;47.338;8.520;2023-11-21T09:33:40;4.20;;;1.17;;
75112;SDS011;63692;47.338;8.520;2023-11-21T09:36:11;3.22;;;1.00;;
75112;SDS011;63692;47.338;8.520;2023-11-21T09:38:38;4.30;;;1.25;;
75112;SDS011;63692;47.338;8.520;2023-11-21T09:41:04;4.05;;;0.77;;
75112;SDS011;63692;47.338;8.520;2023-11-21T09:43:37;4.43;;;0.80;;
75112;SDS011;63692;47.338;8.520;2023-11-21T09:46:04;3.95;;;0.93;;
75112;SDS011;63692;47.338;8.520;2023-11-21T09:48:35;4.40;;;0.80;;
75112;SDS011;63692;47.338;8.520;2023-11-21T09:51:02;5.50;;;0.98;;
75112;SDS011;63692;47.338;8.520;2023-11-21T09:53:28;3.67;;;0.82;;
75112;SDS011;63692;47.338;8.520;2023-11-21T09:55:57;4.03;;;1.38;;
75112;SDS011;63692;47.338;8.520;2023-11-21T09:58:22;3.90;;;1.00;;
75112;SDS011;63692;47.338;8.520;2023-11-21T10:00:55;4.53;;;0.90;;
75112;SDS011;63692;47.338;8.520;2023-11-21T10:03:24;5.50;;;1.02;;
75112;SDS011;63692;47.338;8.520;2023-11-21T10:05:50;3.25;;;0.88;;
75112;SDS011;63692;47.338;8.520;2023-11-21T10:08:17;3.05;;;1.27;;
75112;SDS011;63692;47.338;8.520;2023-11-21T10:10:46;2.95;;;0.77;;
75112;SDS011;63692;47.338;8.520;2023-11-21T10:13:16;3.83;;;0.80;;
75112;SDS011;63692;47.338;8.520;2023-11-21T10:15:44;4.80;;;0.85;;
75112;SDS011;63692;47.338;8.520;2023-11-21T10:18:15;5.65;;;0.93;;
75112;SDS011;63692;47.338;8.520;2023-11-21T10:20:41;4.30;;;0.90;;
75112;SDS011;63692;47.338;8.520;2023-11-21T10:23:08;5.45;;;1.13;;
75112;SDS011;63692;47.338;8.520;2023-11-21T10:25:36;7.50;;;1.00;;
75112;SDS011;63692;47.338;8.520;2023-11-21T10:28:02;2.63;;;0.80;;
75112;SDS011;63692;47.338;8.520;2023-11-21T10:30:32;2.95;;;0.80;;
75112;SDS011;63692;47.338;8.520;2023-11-21T10:33:02;3.15;;;0.75;;
75112;SDS011;63692;47.338;8.520;2023-11-21T10:35:48;2.83;;;0.77;;
75112;SDS011;63692;47.338;8.520;2023-11-21T10:38:19;4.10;;;1.00;;
75112;SDS011;63692;47.338;8.520;2023-11-21T10:40:49;4.65;;;0.90;;
75112;SDS011;63692;47.338;8.520;2023-11-21T10:43:15;2.75;;;1.00;;
75112;SDS011;63692;47.338;8.520;2023-11-21T10:45:41;4.45;;;1.02;;
75112;SDS011;63692;47.338;8.520;2023-11-21T10:48:09;2.72;;;0.90;;
75112;SDS011;63692;47.338;8.520;2023-11-21T10:50:36;3.53;;;0.80;;
75112;SDS011;63692;47.338;8.520;2023-11-21T10:53:03;5.22;;;1.00;;
75112;SDS011;63692;47.338;8.520;2023-11-21T11:15:16;2.97;;;0.80;;
75112;SDS011;63692;47.338;8.520;2023-11-21T11:17:42;4.38;;;1.00;;
75112;SDS011;63692;47.338;8.520;2023-11-21T11:20:10;2.42;;;0.70;;
75112;SDS011;63692;47.338;8.520;2023-11-21T11:22:43;3.28;;;0.70;;
75112;SDS011;63692;47.338;8.520;2023-11-21T11:27:48;2.50;;;0.95;;
75112;SDS011;63692;47.338;8.520;2023-11-21T11:36:15;1.83;;;0.75;;
75112;SDS011;63692;47.338;8.520;2023-11-21T11:38:45;2.20;;;0.75;;
75112;SDS011;63692;47.338;8.520;2023-11-21T11:41:11;2.10;;;0.88;;
75112;SDS011;63692;47.338;8.520;2023-11-21T11:43:37;2.92;;;1.20;;
75112;SDS011;63692;47.338;8.520;2023-11-21T11:46:09;4.13;;;1.40;;
75112;SDS011;63692;47.338;8.520;2023-11-21T11:48:38;3.55;;;0.95;;
75112;SDS011;63692;47.338;8.520;2023-11-21T11:51:11;2.85;;;0.70;;
75112;SDS011;63692;47.338;8.520;2023-11-21T11:53:40;2.67;;;0.73;;
75112;SDS011;63692;47.338;8.520;2023-11-21T11:56:19;3.53;;;0.90;;
75112;SDS011;63692;47.338;8.520;2023-11-21T11:58:51;2.80;;;0.90;;
75112;SDS011;63692;47.338;8.520;2023-11-21T12:01:19;2.72;;;0.80;;
75112;SDS011;63692;47.338;8.520;2023-11-21T12:06:16;2.67;;;0.80;;
75112;SDS011;63692;47.338;8.520;2023-11-21T12:08:49;1.70;;;0.70;;
75112;SDS011;63692;47.338;8.520;2023-11-21T12:11:17;1.55;;;0.70;;
75112;SDS011;63692;47.338;8.520;2023-11-21T12:13:42;4.30;;;1.00;;
75112;SDS011;63692;47.338;8.520;2023-11-21T12:16:08;3.05;;;1.00;;
75112;SDS011;63692;47.338;8.520;2023-11-21T12:18:35;3.70;;;0.80;;
75112;SDS011;63692;47.338;8.520;2023-11-21T12:21:03;1.77;;;0.70;;
75112;SDS011;63692;47.338;8.520;2023-11-21T12:23:29;3.28;;;0.98;;
75112;SDS011;63692;47.338;8.520;2023-11-21T12:25:54;2.72;;;1.05;;
75112;SDS011;63692;47.338;8.520;2023-11-21T12:28:20;2.63;;;0.75;;
75112;SDS011;63692;47.338;8.520;2023-11-21T12:30:48;3.85;;;0.98;;
75112;SDS011;63692;47.338;8.520;2023-11-21T12:33:13;2.63;;;1.10;;
75112;SDS011;63692;47.338;8.520;2023-11-21T12:35:42;2.38;;;0.85;;
75112;SDS011;63692;47.338;8.520;2023-11-21T12:38:09;2.63;;;0.82;;
75112;SDS011;63692;47.338;8.520;2023-11-21T12:40:35;1.65;;;0.60;;
75112;SDS011;63692;47.338;8.520;2023-11-21T12:43:00;2.78;;;0.90;;
75112;SDS011;63692;47.338;8.520;2023-11-21T12:45:29;3.45;;;0.98;;
75112;SDS011;63692;47.338;8.520;2023-11-21T12:50:28;2.90;;;0.75;;
75112;SDS011;63692;47.338;8.520;2023-11-21T12:52:59;3.38;;;0.80;;
75112;SDS011;63692;47.338;8.520;2023-11-21T12:55:29;2.25;;;0.80;;
75112;SDS011;63692;47.338;8.520;2023-11-21T12:58:00;1.70;;;0.70;;
75112;SDS011;63692;47.338;8.520;2023-11-21T13:00:56;4.10;;;0.90;;
75112;SDS011;63692;47.338;8.520;2023-11-21T13:03:24;3.28;;;0.90;;
75112;SDS011;63692;47.338;8.520;2023-11-21T13:05:51;2.55;;;0.80;;
75112;SDS011;63692;47.338;8.520;2023-11-21T13:08:18;2.22;;;0.85;;
75112;SDS011;63692;47.338;8.520;2023-11-21T13:10:48;2.95;;;0.80;;
75112;SDS011;63692;47.338;8.520;2023-11-21T13:13:15;3.38;;;0.90;;
75112;SDS011;63692;47.338;8.520;2023-11-21T13:15:47;2.88;;;1.00;;
75112;SDS011;63692;47.338;8.520;2023-11-21T13:18:13;3.13;;;1.05;;
75112;SDS011;63692;47.338;8.520;2023-11-21T13:20:40;3.00;;;1.17;;
75112;SDS011;63692;47.338;8.520;2023-11-21T13:23:08;2.80;;;1.10;;
75112;SDS011;63692;47.338;8.520;2023-11-21T13:25:37;2.20;;;1.10;;
75112;SDS011;63692;47.338;8.520;2023-11-21T13:28:04;4.75;;;1.13;;
75112;SDS011;63692;47.338;8.520;2023-11-21T13:30:30;3.05;;;1.20;;
75112;SDS011;63692;47.338;8.520;2023-11-21T13:32:59;3.38;;;1.17;;
75112;SDS011;63692;47.338;8.520;2023-11-21T13:38:07;4.43;;;1.30;;
75112;SDS011;63692;47.338;8.520;2023-11-21T13:40:34;3.72;;;1.08;;
75112;SDS011;63692;47.338;8.520;2023-11-21T13:45:37;4.95;;;1.58;;
75112;SDS011;63692;47.338;8.520;2023-11-21T13:48:07;4.13;;;1.20;;
75112;SDS011;63692;47.338;8.520;2023-11-21T13:50:38;2.47;;;0.93;;
75112;SDS011;63692;47.338;8.520;2023-11-21T13:53:20;2.17;;;1.10;;
75112;SDS011;63692;47.338;8.520;2023-11-21T13:55:52;5.07;;;1.00;;
75112;SDS011;63692;47.338;8.520;2023-11-21T13:58:25;2.22;;;1.10;;
75112;SDS011;63692;47.338;8.520;2023-11-21T14:01:09;3.28;;;1.30;;
75112;SDS011;63692;47.338;8.520;2023-11-21T14:03:53;2.10;;;1.10;;
75112;SDS011;63692;47.338;8.520;2023-11-21T14:06:26;2.15;;;1.00;;
75112;SDS011;63692;47.338;8.520;2023-11-21T14:09:01;3.75;;;1.15;;
75112;SDS011;63692;47.338;8.520;2023-11-21T14:11:31;1.88;;;0.95;;
75112;SDS011;63692;47.338;8.520;2023-11-21T14:13:56;1.90;;;1.02;;
75112;SDS011;63692;47.338;8.520;2023-11-21T14:16:24;2.63;;;1.00;;
75112;SDS011;63692;47.338;8.520;2023-11-21T14:18:50;2.05;;;1.00;;
75112;SDS011;63692;47.338;8.520;2023-11-21T14:21:26;3.25;;;1.00;;
75112;SDS011;63692;47.338;8.520;2023-11-21T14:23:52;5.13;;;2.97;;
75112;SDS011;63692;47.338;8.520;2023-11-21T14:26:20;4.57;;;2.00;;
75112;SDS011;63692;47.338;8.520;2023-11-21T14:28:45;2.85;;;1.10;;
75112;SDS011;63692;47.338;8.520;2023-11-21T14:31:13;1.90;;;0.90;;
75112;SDS011;63692;47.338;8.520;2023-11-21T14:33:42;1.90;;;0.90;;
75112;SDS011;63692;47.338;8.520;2023-11-21T14:36:08;3.70;;;1.00;;
75112;SDS011;63692;47.338;8.520;2023-11-21T14:38:35;2.30;;;1.00;;
75112;SDS011;63692;47.338;8.520;2023-11-21T14:41:06;3.53;;;1.30;;
75112;SDS011;63692;47.338;8.520;2023-11-21T14:43:39;2.30;;;1.00;;
75112;SDS011;63692;47.338;8.520;2023-11-21T14:46:06;5.13;;;1.10;;
75112;SDS011;63692;47.338;8.520;2023-11-21T14:48:35;3.42;;;1.00;;
75112;SDS011;63692;47.338;8.520;2023-11-21T14:51:12;2.80;;;1.10;;
75112;SDS011;63692;47.338;8.520;2023-11-21T14:53:58;3.33;;;1.23;;
75112;SDS011;63692;47.338;8.520;2023-11-21T14:56:31;4.28;;;2.00;;
75112;SDS011;63692;47.338;8.520;2023-11-21T14:58:59;2.53;;;1.00;;
75112;SDS011;63692;47.338;8.520;2023-11-21T15:01:37;5.78;;;1.20;;
75112;SDS011;63692;47.338;8.520;2023-11-21T15:04:20;2.50;;;1.00;;
75112;SDS011;63692;47.338;8.520;2023-11-21T15:07:00;2.65;;;1.20;;
75112;SDS011;63692;47.338;8.520;2023-11-21T15:09:28;1.90;;;1.00;;
75112;SDS011;63692;47.338;8.520;2023-11-21T15:11:56;2.95;;;0.77;;
75112;SDS011;63692;47.338;8.520;2023-11-21T15:14:28;2.35;;;0.90;;
75112;SDS011;63692;47.338;8.520;2023-11-21T15:16:57;2.30;;;0.60;;
75112;SDS011;63692;47.338;8.520;2023-11-21T15:19:25;5.43;;;0.80;;
75112;SDS011;63692;47.338;8.520;2023-11-21T15:21:51;4.82;;;0.90;;
75112;SDS011;63692;47.338;8.520;2023-11-21T15:24:17;2.30;;;0.90;;
75112;SDS011;63692;47.338;8.520;2023-11-21T15:26:42;1.60;;;0.70;;
75112;SDS011;63692;47.338;8.520;2023-11-21T15:29:08;3.13;;;0.68;;
75112;SDS011;63692;47.338;8.520;2023-11-21T15:31:34;2.47;;;0.70;;
75112;SDS011;63692;47.338;8.520;2023-11-21T15:34:01;3.00;;;0.80;;
75112;SDS011;63692;47.338;8.520;2023-11-21T15:36:27;2.22;;;0.80;;
75112;SDS011;63692;47.338;8.520;2023-11-21T15:38:53;3.35;;;2.00;;
75112;SDS011;63692;47.338;8.520;2023-11-21T15:41:19;3.63;;;1.40;;
75112;SDS011;63692;47.338;8.520;2023-11-21T15:43:45;2.72;;;1.23;;
75112;SDS011;63692;47.338;8.520;2023-11-21T15:46:13;3.20;;;0.95;;
75112;SDS011;63692;47.338;8.520;2023-11-21T15:48:39;5.40;;;1.20;;
75112;SDS011;63692;47.338;8.520;2023-11-21T15:51:08;2.88;;;1.20;;
75112;SDS011;63692;47.338;8.520;2023-11-21T15:53:37;1.95;;;0.90;;
75112;SDS011;63692;47.338;8.520;2023-11-21T15:56:06;4.45;;;1.00;;
75112;SDS011;63692;47.338;8.520;2023-11-21T15:58:35;2.60;;;1.00;;
75112;SDS011;63692;47.338;8.520;2023-11-21T16:01:02;3.45;;;1.00;;
75112;SDS011;63692;47.338;8.520;2023-11-21T16:03:28;4.20;;;0.90;;
75112;SDS011;63692;47.338;8.520;2023-11-21T16:05:57;1.63;;;0.77;;
75112;SDS011;63692;47.338;8.520;2023-11-21T16:08:23;3.17;;;0.70;;
75112;SDS011;63692;47.338;8.520;2023-11-21T16:10:49;2.65;;;0.90;;
75112;SDS011;63692;47.338;8.520;2023-11-21T16:13:14;2.88;;;1.00;;
75112;SDS011;63692;47.338;8.520;2023-11-21T16:15:41;5.20;;;0.90;;
75112;SDS011;63692;47.338;8.520;2023-11-21T16:18:07;1.67;;;0.70;;
75112;SDS011;63692;47.338;8.520;2023-11-21T16:20:33;7.03;;;2.60;;
75112;SDS011;63692;47.338;8.520;2023-11-21T16:22:59;3.20;;;0.90;;
75112;SDS011;63692;47.338;8.520;2023-11-21T16:25:24;2.97;;;1.20;;
75112;SDS011;63692;47.338;8.520;2023-11-21T16:27:50;2.28;;;0.68;;
75112;SDS011;63692;47.338;8.520;2023-11-21T16:30:16;7.47;;;1.00;;
75112;SDS011;63692;47.338;8.520;2023-11-21T16:32:46;2.80;;;0.93;;
75112;SDS011;63692;47.338;8.520;2023-11-21T16:35:12;3.22;;;0.80;;
75112;SDS011;63692;47.338;8.520;2023-11-21T16:37:38;2.95;;;1.30;;
75112;SDS011;63692;47.338;8.520;2023-11-21T16:40:04;2.42;;;0.90;;
75112;SDS011;63692;47.338;8.520;2023-11-21T16:42:33;4.10;;;1.02;;
75112;SDS011;63692;47.338;8.520;2023-11-21T16:44:59;2.10;;;0.88;;
75112;SDS011;63692;47.338;8.520;2023-11-21T16:47:25;3.67;;;0.80;;
75112;SDS011;63692;47.338;8.520;2023-11-21T16:49:50;3.83;;;1.00;;
75112;SDS011;63692;47.338;8.520;2023-11-21T16:52:16;2.20;;;0.90;;
75112;SDS011;63692;47.338;8.520;2023-11-21T16:54:47;3.63;;;1.67;;
75112;SDS011;63692;47.338;8.520;2023-11-21T16:57:13;3.92;;;1.70;;
75112;SDS011;63692;47.338;8.520;2023-11-21T16:59:39;2.22;;;1.10;;
75112;SDS011;63692;47.338;8.520;2023-11-21T17:02:06;3.92;;;1.27;;
75112;SDS011;63692;47.338;8.520;2023-11-21T17:04:34;4.57;;;1.20;;
75112;SDS011;63692;47.338;8.520;2023-11-21T17:07:02;5.20;;;2.95;;
75112;SDS011;63692;47.338;8.520;2023-11-21T17:09:28;5.20;;;1.60;;
75112;SDS011;63692;47.338;8.520;2023-11-21T17:11:53;4.88;;;1.40;;
75112;SDS011;63692;47.338;8.520;2023-11-21T17:14:20;2.67;;;1.20;;
75112;SDS011;63692;47.338;8.520;2023-11-21T17:16:46;4.85;;;1.40;;
75112;SDS011;63692;47.338;8.520;2023-11-21T17:19:14;2.60;;;1.20;;
75112;SDS011;63692;47.338;8.520;2023-11-21T17:21:39;4.63;;;1.38;;
75112;SDS011;63692;47.338;8.520;2023-11-21T17:26:33;5.18;;;2.13;;
75112;SDS011;63692;47.338;8.520;2023-11-21T17:29:00;3.72;;;2.35;;
75112;SDS011;63692;47.338;8.520;2023-11-21T17:31:26;3.47;;;2.10;;
75112;SDS011;63692;47.338;8.520;2023-11-21T17:33:52;4.53;;;2.42;;
75112;SDS011;63692;47.338;8.520;2023-11-21T17:36:19;3.00;;;1.85;;
75112;SDS011;63692;47.338;8.520;2023-11-21T17:38:45;5.97;;;2.65;;
75112;SDS011;63692;47.338;8.520;2023-11-21T17:41:11;3.30;;;2.20;;
75112;SDS011;63692;47.338;8.520;2023-11-21T17:43:40;3.67;;;2.17;;
75112;SDS011;63692;47.338;8.520;2023-11-21T17:46:08;3.50;;;2.40;;
75112;SDS011;63692;47.338;8.520;2023-11-21T17:48:34;4.07;;;2.25;;
75112;SDS011;63692;47.338;8.520;2023-11-21T17:51:01;4.13;;;2.67;;
75112;SDS011;63692;47.338;8.520;2023-11-21T17:53:28;8.43;;;3.25;;
75112;SDS011;63692;47.338;8.520;2023-11-21T17:55:53;6.72;;;3.03;;
75112;SDS011;63692;47.338;8.520;2023-11-21T17:58:19;4.47;;;2.70;;
75112;SDS011;63692;47.338;8.520;2023-11-21T18:00:45;4.63;;;2.75;;
75112;SDS011;63692;47.338;8.520;2023-11-21T18:03:11;4.57;;;2.50;;
75112;SDS011;63692;47.338;8.520;2023-11-21T18:05:37;4.50;;;2.67;;
75112;SDS011;63692;47.338;8.520;2023-11-21T18:08:03;8.73;;;4.20;;
75112;SDS011;63692;47.338;8.520;2023-11-21T18:10:30;3.78;;;2.55;;
75112;SDS011;63692;47.338;8.520;2023-11-21T18:12:57;5.30;;;2.90;;
75112;SDS011;63692;47.338;8.520;2023-11-21T18:15:22;5.07;;;3.00;;
75112;SDS011;63692;47.338;8.520;2023-11-21T18:17:48;6.97;;;3.63;;
75112;SDS011;63692;47.338;8.520;2023-11-21T18:20:14;8.93;;;4.82;;
75112;SDS011;63692;47.338;8.520;2023-11-21T18:22:40;6.78;;;4.38;;
75112;SDS011;63692;47.338;8.520;2023-11-21T18:25:05;6.20;;;4.13;;
75112;SDS011;63692;47.338;8.520;2023-11-21T18:27:31;5.53;;;3.47;;
75112;SDS011;63692;47.338;8.520;2023-11-21T18:29:57;6.28;;;3.58;;
75112;SDS011;63692;47.338;8.520;2023-11-21T18:32:25;7.53;;;4.32;;
75112;SDS011;63692;47.338;8.520;2023-11-21T18:34:52;7.75;;;3.88;;
75112;SDS011;63692;47.338;8.520;2023-11-21T18:37:18;6.38;;;3.83;;
75112;SDS011;63692;47.338;8.520;2023-11-21T18:39:44;4.72;;;3.42;;
75112;SDS011;63692;47.338;8.520;2023-11-21T18:42:11;5.68;;;3.72;;
75112;SDS011;63692;47.338;8.520;2023-11-21T18:44:40;6.43;;;3.78;;
75112;SDS011;63692;47.338;8.520;2023-11-21T18:47:09;7.57;;;3.90;;
75112;SDS011;63692;47.338;8.520;2023-11-21T18:49:41;5.93;;;3.63;;
75112;SDS011;63692;47.338;8.520;2023-11-21T18:52:09;4.47;;;3.15;;
75112;SDS011;63692;47.338;8.520;2023-11-21T18:54:36;4.20;;;2.50;;
75112;SDS011;63692;47.338;8.520;2023-11-21T18:57:02;6.82;;;2.83;;
75112;SDS011;63692;47.338;8.520;2023-11-21T18:59:27;5.15;;;2.90;;
75112;SDS011;63692;47.338;8.520;2023-11-21T19:01:54;6.07;;;3.17;;
75112;SDS011;63692;47.338;8.520;2023-11-21T19:04:19;6.90;;;3.38;;
75112;SDS011;63692;47.338;8.520;2023-11-21T19:09:22;4.75;;;3.50;;
75112;SDS011;63692;47.338;8.520;2023-11-21T19:11:48;7.18;;;3.83;;
75112;SDS011;63692;47.338;8.520;2023-11-21T19:14:13;8.32;;;3.67;;
75112;SDS011;63692;47.338;8.520;2023-11-21T19:16:39;6.13;;;3.35;;
75112;SDS011;63692;47.338;8.520;2023-11-21T19:19:04;4.35;;;2.72;;
75112;SDS011;63692;47.338;8.520;2023-11-21T19:21:33;3.47;;;1.83;;
75112;SDS011;63692;47.338;8.520;2023-11-21T19:23:58;3.95;;;2.17;;
75112;SDS011;63692;47.338;8.520;2023-11-21T19:26:24;3.95;;;1.90;;
75112;SDS011;63692;47.338;8.520;2023-11-21T19:28:49;3.05;;;1.85;;
75112;SDS011;63692;47.338;8.520;2023-11-21T19:31:20;15.70;;;8.80;;
75112;SDS011;63692;47.338;8.520;2023-11-21T19:33:46;6.82;;;4.05;;
75112;SDS011;63692;47.338;8.520;2023-11-21T19:36:18;3.80;;;1.95;;
75112;SDS011;63692;47.338;8.520;2023-11-21T19:38:44;3.60;;;1.85;;
75112;SDS011;63692;47.338;8.520;2023-11-21T19:41:16;2.80;;;1.70;;
75112;SDS011;63692;47.338;8.520;2023-11-21T19:43:43;3.25;;;1.83;;
75112;SDS011;63692;47.338;8.520;2023-11-21T19:46:10;6.57;;;1.90;;
75112;SDS011;63692;47.338;8.520;2023-11-21T19:48:36;2.70;;;1.77;;
75112;SDS011;63692;47.338;8.520;2023-11-21T19:51:02;3.00;;;1.70;;
75112;SDS011;63692;47.338;8.520;2023-11-21T19:53:33;6.03;;;3.00;;
75112;SDS011;63692;47.338;8.520;2023-11-21T19:56:02;5.47;;;2.40;;
75112;SDS011;63692;47.338;8.520;2023-11-21T19:58:34;4.25;;;2.28;;
75112;SDS011;63692;47.338;8.520;2023-11-21T20:01:00;3.42;;;1.88;;
75112;SDS011;63692;47.338;8.520;2023-11-21T20:03:26;4.03;;;2.20;;
75112;SDS011;63692;47.338;8.520;2023-11-21T20:05:52;3.55;;;1.98;;
75112;SDS011;63692;47.338;8.520;2023-11-21T20:08:18;4.00;;;2.15;;
75112;SDS011;63692;47.338;8.520;2023-11-21T20:10:44;3.33;;;1.95;;
75112;SDS011;63692;47.338;8.520;2023-11-21T20:13:11;4.60;;;2.17;;
75112;SDS011;63692;47.338;8.520;2023-11-21T20:15:38;3.63;;;2.10;;
75112;SDS011;63692;47.338;8.520;2023-11-21T20:18:04;5.65;;;2.38;;
75112;SDS011;63692;47.338;8.520;2023-11-21T20:20:30;4.03;;;1.88;;
75112;SDS011;63692;47.338;8.520;2023-11-21T20:22:56;3.58;;;1.90;;
75112;SDS011;63692;47.338;8.520;2023-11-21T20:25:22;3.40;;;1.80;;
75112;SDS011;63692;47.338;8.520;2023-11-21T20:27:47;3.65;;;2.10;;
75112;SDS011;63692;47.338;8.520;2023-11-21T20:30:13;3.60;;;1.95;;
75112;SDS011;63692;47.338;8.520;2023-11-21T20:32:39;4.00;;;1.95;;
75112;SDS011;63692;47.338;8.520;2023-11-21T20:35:05;4.13;;;1.98;;
75112;SDS011;63692;47.338;8.520;2023-11-21T20:37:31;3.20;;;1.92;;
75112;SDS011;63692;47.338;8.520;2023-11-21T20:39:58;3.55;;;2.17;;
75112;SDS011;63692;47.338;8.520;2023-11-21T20:42:25;3.67;;;2.20;;
75112;SDS011;63692;47.338;8.520;2023-11-21T20:44:53;3.42;;;2.08;;
75112;SDS011;63692;47.338;8.520;2023-11-21T20:47:19;3.75;;;2.10;;
75112;SDS011;63692;47.338;8.520;2023-11-21T20:49:45;4.32;;;1.70;;
75112;SDS011;63692;47.338;8.520;2023-11-21T20:52:11;5.40;;;1.85;;
75112;SDS011;63692;47.338;8.520;2023-11-21T20:54:36;3.45;;;1.90;;
75112;SDS011;63692;47.338;8.520;2023-11-21T20:57:02;3.75;;;2.05;;
75112;SDS011;63692;47.338;8.520;2023-11-21T20:59:27;4.20;;;2.20;;
